createdAt,value
2023-01-10T00:00:34.145Z,3.9
2023-01-10T00:01:34.704Z,1.7
2023-01-10T00:02:34.478Z,2.6
2023-01-10T00:03:34.272Z,1.5
2023-01-10T00:04:34.215Z,3.0
2023-01-10T00:05:34.635Z,1.5
2023-01-10T00:06:34.645Z,2.6
2023-01-10T00:07:34.431Z,1.5
2023-01-10T00:08:34.248Z,1.4
2023-01-10T00:09:34.053Z,2.6
2023-01-10T00:10:34.133Z,2.5
2023-01-10T00:11:34.570Z,2.3
2023-01-10T00:12:34.309Z,2.1
2023-01-10T00:13:34.133Z,1.5
2023-01-10T00:14:34.041Z,1.9
2023-01-10T00:15:35.598Z,2.0
2023-01-10T00:16:34.535Z,1.8
2023-01-10T00:17:34.289Z,1.9
2023-01-10T00:18:34.130Z,3.0
2023-01-10T00:19:33.935Z,1.3
2023-01-10T00:20:34.657Z,1.8
2023-01-10T00:21:34.421Z,2.6
2023-01-10T00:22:34.232Z,2.2
2023-01-10T00:23:34.035Z,2.4
2023-01-10T00:24:34.767Z,2.7
2023-01-10T00:25:34.590Z,2.1
2023-01-10T00:26:34.433Z,0.9
2023-01-10T00:27:34.200Z,2.4
2023-01-10T00:28:34.014Z,1.4
2023-01-10T00:29:34.653Z,2.0
2023-01-10T00:30:36.246Z,2.0
2023-01-10T00:31:34.387Z,1.0
2023-01-10T00:32:34.159Z,1.5
2023-01-10T00:33:34.221Z,1.1
2023-01-10T00:34:34.677Z,2.0
2023-01-10T00:35:34.959Z,1.2
2023-01-10T00:36:34.344Z,2.3
2023-01-10T00:37:34.286Z,1.6
2023-01-10T00:38:34.382Z,1.3
2023-01-10T00:39:34.527Z,1.0
2023-01-10T00:40:34.348Z,1.3
2023-01-10T00:41:34.185Z,1.9
2023-01-10T00:42:34.534Z,2.2
2023-01-10T00:43:34.754Z,1.7
2023-01-10T00:44:34.531Z,1.7
2023-01-10T00:45:34.353Z,1.5
2023-01-10T00:46:34.302Z,1.3
2023-01-10T00:47:33.998Z,1.4
2023-01-10T00:48:34.887Z,2.0
2023-01-10T00:49:34.441Z,1.1
2023-01-10T00:50:34.246Z,1.5
2023-01-10T00:51:34.213Z,1.6
2023-01-10T00:52:33.890Z,2.0
2023-01-10T00:53:34.635Z,3.0
2023-01-10T00:54:34.441Z,1.3
2023-01-10T00:55:34.748Z,1.4
2023-01-10T00:56:34.036Z,1.3
2023-01-10T00:57:34.679Z,0.7
2023-01-10T00:58:34.521Z,2.1
2023-01-10T00:59:34.345Z,1.6
2023-01-10T01:00:34.154Z,1.8
2023-01-10T01:01:34.154Z,2.2
2023-01-10T01:02:35.208Z,1.6
2023-01-10T01:03:34.530Z,1.5
2023-01-10T01:04:34.318Z,1.2
2023-01-10T01:05:38.971Z,0.8
2023-01-10T01:06:33.903Z,1.4
2023-01-10T01:07:34.620Z,0.7
2023-01-10T01:08:34.373Z,1.9
2023-01-10T01:09:34.247Z,1.9
2023-01-10T01:10:34.184Z,1.9
2023-01-10T01:11:34.723Z,2.0
2023-01-10T01:12:34.552Z,1.4
2023-01-10T01:13:34.327Z,0.7
2023-01-10T01:14:34.218Z,1.1
2023-01-10T01:15:34.143Z,0.4
2023-01-10T01:16:34.656Z,1.1
2023-01-10T01:17:34.502Z,0.6
2023-01-10T01:18:34.270Z,1.6
2023-01-10T01:19:34.119Z,1.9
2023-01-10T01:20:33.974Z,0.7
2023-01-10T01:21:34.631Z,1.4
2023-01-10T01:22:34.575Z,0.9
2023-01-10T01:23:34.232Z,1.8
2023-01-10T01:24:34.055Z,1.4
2023-01-10T01:25:34.763Z,1.6
2023-01-10T01:26:34.508Z,0.5
2023-01-10T01:27:34.362Z,2.2
2023-01-10T01:28:34.152Z,1.1
2023-01-10T01:29:42.977Z,2.4
2023-01-10T01:30:34.741Z,1.5
2023-01-10T01:31:34.592Z,0.6
2023-01-10T01:32:34.305Z,1.4
2023-01-10T01:33:34.126Z,1.0
2023-01-10T01:34:33.908Z,1.1
2023-01-10T01:35:34.544Z,1.1
2023-01-10T01:36:34.377Z,1.3
2023-01-10T01:37:34.167Z,1.4
2023-01-10T01:38:33.984Z,0.7
2023-01-10T01:39:34.719Z,1.1
2023-01-10T01:40:34.622Z,1.1
2023-01-10T01:41:34.331Z,0.6
2023-01-10T01:42:34.527Z,1.3
2023-01-10T01:43:38.879Z,1.0
2023-01-10T01:44:38.402Z,1.5
2023-01-10T01:45:36.040Z,2.3
2023-01-10T01:46:37.027Z,0.8
2023-01-10T01:47:35.474Z,0.9
2023-01-10T01:48:38.544Z,1.3
2023-01-10T01:49:37.030Z,1.2
2023-01-10T01:50:46.745Z,0.9
2023-01-10T01:51:34.306Z,0.9
2023-01-10T01:52:34.360Z,0.5
2023-01-10T01:53:39.341Z,0.9
2023-01-10T01:54:34.627Z,0.9
2023-01-10T01:55:35.515Z,1.0
2023-01-10T01:56:37.462Z,0.9
2023-01-10T01:57:34.247Z,1.2
2023-01-10T01:58:38.453Z,1.5
2023-01-10T01:59:37.418Z,0.6
2023-01-10T02:00:34.391Z,1.1
2023-01-10T02:01:34.883Z,0.5
2023-01-10T02:02:38.561Z,0.9
2023-01-10T02:03:35.006Z,0.5
2023-01-10T02:04:42.968Z,1.1
2023-01-10T02:05:35.973Z,0.5
2023-01-10T02:06:34.109Z,1.8
2023-01-10T02:07:36.578Z,0.9
2023-01-10T02:08:35.175Z,0.7
2023-01-10T02:09:40.616Z,1.0
2023-01-10T02:10:50.356Z,0.8
2023-01-10T02:11:34.124Z,0.8
2023-01-10T02:12:35.100Z,1.4
2023-01-10T02:13:36.824Z,0.8
2023-01-10T02:14:35.338Z,0.5
2023-01-10T02:15:34.197Z,0.5
2023-01-10T02:16:34.038Z,2.0
2023-01-10T02:17:34.718Z,0.5
2023-01-10T02:18:36.255Z,0.5
2023-01-10T02:19:52.554Z,1.4
2023-01-10T02:20:38.957Z,0.4
2023-01-10T02:21:52.032Z,0.6
2023-01-10T02:22:57.110Z,0.4
2023-01-10T02:23:42.116Z,0.8
2023-01-10T02:24:47.593Z,0.5
2023-01-10T02:25:38.875Z,1.6
2023-01-10T02:26:42.630Z,0.6
2023-01-10T02:27:45.155Z,0.5
2023-01-10T02:28:42.134Z,1.1
2023-01-10T02:29:39.080Z,0.7
2023-01-10T02:30:41.645Z,0.3
2023-01-10T02:31:42.116Z,0.8
2023-01-10T02:32:45.919Z,0.5
2023-01-10T02:33:52.597Z,0.4
2023-01-10T02:34:56.601Z,0.8
2023-01-10T02:35:38.760Z,1.0
2023-01-10T02:36:39.525Z,0.3
2023-01-10T02:37:39.327Z,0.2
2023-01-10T02:38:45.142Z,0.7
2023-01-10T02:39:38.897Z,0.5
2023-01-10T02:40:41.588Z,0.5
2023-01-10T02:41:39.438Z,0.8
2023-01-10T02:42:48.151Z,0.8
2023-01-10T02:43:36.990Z,0.9
2023-01-10T02:44:44.664Z,1.0
2023-01-10T02:45:45.122Z,1.4
2023-01-10T02:46:36.233Z,0.5
2023-01-10T02:47:35.408Z,1.1
2023-01-10T02:48:34.211Z,0.5
2023-01-10T02:49:46.836Z,1.9
2023-01-10T02:50:48.093Z,0.0
2023-01-10T02:51:34.493Z,0.1
2023-01-10T02:52:34.246Z,0.7
2023-01-10T02:53:38.713Z,0.4
2023-01-10T02:54:34.067Z,0.7
2023-01-10T02:55:48.126Z,0.3
2023-01-10T02:56:45.136Z,1.0
2023-01-10T02:57:42.110Z,1.0
2023-01-10T02:58:52.056Z,0.3
2023-01-10T02:59:53.081Z,0.4
2023-01-10T03:00:39.461Z,0.5
2023-01-10T03:01:39.335Z,0.8
2023-01-10T03:02:50.736Z,0.3
2023-01-10T03:03:43.155Z,1.3
2023-01-10T03:04:51.174Z,0.3
2023-01-10T03:05:39.445Z,0.9
2023-01-10T03:06:39.179Z,0.4
2023-01-10T03:07:41.587Z,0.1
2023-01-10T03:08:38.807Z,0.1
2023-01-10T03:09:38.080Z,0.2
2023-01-10T03:10:48.115Z,0.7
2023-01-10T03:11:36.417Z,0.4
2023-01-10T03:12:41.605Z,0.4
2023-01-10T03:13:52.636Z,0.4
2023-01-10T03:14:36.020Z,0.2
2023-01-10T03:15:36.022Z,0.5
2023-01-10T03:16:34.794Z,0.7
2023-01-10T03:17:35.545Z,0.2
2023-01-10T03:18:39.988Z,0.2
2023-01-10T03:19:37.323Z,0.3
2023-01-10T03:20:36.432Z,0.2
2023-01-10T03:21:34.957Z,0.5
2023-01-10T03:22:36.130Z,0.9
2023-01-10T03:23:35.066Z,0.4
2023-01-10T03:24:37.949Z,0.0
2023-01-10T03:25:36.228Z,0.2
2023-01-10T03:26:41.622Z,0.7
2023-01-10T03:27:50.057Z,1.8
2023-01-10T03:28:38.218Z,0.5
2023-01-10T03:29:38.965Z,0.7
2023-01-10T03:30:45.150Z,0.5
2023-01-10T03:31:38.998Z,0.4
2023-01-10T03:32:34.918Z,0.4
2023-01-10T03:33:34.894Z,0.1
2023-01-10T03:34:34.850Z,0.4
2023-01-10T03:35:39.232Z,0.2
2023-01-10T03:36:47.591Z,0.0
2023-01-10T03:37:51.104Z,0.5
2023-01-10T03:38:42.122Z,0.3
2023-01-10T03:39:54.129Z,0.8
2023-01-10T03:40:39.066Z,1.0
2023-01-10T03:41:38.839Z,1.0
2023-01-10T03:42:39.597Z,0.0
2023-01-10T03:43:43.661Z,0.7
2023-01-10T03:44:37.463Z,0.0
2023-01-10T03:45:39.037Z,0.4
2023-01-10T03:46:38.887Z,0.3
2023-01-10T03:47:38.680Z,0.1
2023-01-10T03:48:35.753Z,0.3
2023-01-10T03:49:36.629Z,0.2
2023-01-10T03:50:34.786Z,0.2
2023-01-10T03:51:35.296Z,0.2
2023-01-10T03:52:34.931Z,0.7
2023-01-10T03:53:36.936Z,1.1
2023-01-10T03:54:34.287Z,0.2
2023-01-10T03:55:34.728Z,0.0
2023-01-10T03:56:39.552Z,0.0
2023-01-10T03:57:34.474Z,0.3
2023-01-10T03:58:34.313Z,0.7
2023-01-10T03:59:34.238Z,1.0
2023-01-10T04:00:33.978Z,0.0
2023-01-10T04:01:34.904Z,1.1
2023-01-10T04:02:34.474Z,1.6
2023-01-10T04:03:34.292Z,0.5
2023-01-10T04:04:34.057Z,0.4
2023-01-10T04:05:33.962Z,0.4
2023-01-10T04:06:34.635Z,0.1
2023-01-10T04:07:34.362Z,0.3
2023-01-10T04:08:34.218Z,0.5
2023-01-10T04:09:34.047Z,0.3
2023-01-10T04:10:34.709Z,0.4
2023-01-10T04:11:34.662Z,0.1
2023-01-10T04:12:34.438Z,0.0
2023-01-10T04:13:34.158Z,0.0
2023-01-10T04:14:33.968Z,0.8
2023-01-10T04:15:34.597Z,0.1
2023-01-10T04:16:34.583Z,0.5
2023-01-10T04:17:34.264Z,0.2
2023-01-10T04:18:34.057Z,0.0
2023-01-10T04:19:34.781Z,0.5
2023-01-10T04:20:34.541Z,0.3
2023-01-10T04:21:34.412Z,0.0
2023-01-10T04:22:34.211Z,0.3
2023-01-10T04:23:33.992Z,0.0
2023-01-10T04:24:34.713Z,0.0
2023-01-10T04:25:34.473Z,0.2
2023-01-10T04:26:34.347Z,0.0
2023-01-10T04:27:34.393Z,0.3
2023-01-10T04:28:33.935Z,0.4
2023-01-10T04:29:34.663Z,0.1
2023-01-10T04:30:34.477Z,0.6
2023-01-10T04:31:34.285Z,0.0
2023-01-10T04:32:34.098Z,0.0
2023-01-10T04:33:33.908Z,0.1
2023-01-10T04:34:34.543Z,0.4
2023-01-10T04:35:34.365Z,0.1
2023-01-10T04:36:34.192Z,0.6
2023-01-10T04:37:34.004Z,0.2
2023-01-10T04:38:34.748Z,0.0
2023-01-10T04:39:34.587Z,0.0
2023-01-10T04:40:34.363Z,0.1
2023-01-10T04:41:34.172Z,0.0
2023-01-10T04:42:34.083Z,0.0
2023-01-10T04:43:34.692Z,0.6
2023-01-10T04:44:34.447Z,0.4
2023-01-10T04:45:34.266Z,0.8
2023-01-10T04:46:34.095Z,0.2
2023-01-10T04:47:33.932Z,0.4
2023-01-10T04:48:35.253Z,0.0
2023-01-10T04:49:34.417Z,0.5
2023-01-10T04:50:34.245Z,0.4
2023-01-10T04:51:34.099Z,0.8
2023-01-10T04:52:34.750Z,0.1
2023-01-10T04:53:34.657Z,0.3
2023-01-10T04:54:34.426Z,0.0
2023-01-10T04:55:34.356Z,0.4
2023-01-10T04:56:34.014Z,0.6
2023-01-10T04:57:34.660Z,0.2
2023-01-10T04:58:35.307Z,0.1
2023-01-10T04:59:34.291Z,0.2
2023-01-10T05:00:34.111Z,0.2
2023-01-10T05:01:33.882Z,0.0
2023-01-10T05:02:34.834Z,0.0
2023-01-10T05:03:34.366Z,0.2
2023-01-10T05:04:34.264Z,0.1
2023-01-10T05:05:34.124Z,0.0
2023-01-10T05:06:34.979Z,0.2
2023-01-10T05:07:34.555Z,0.7
2023-01-10T05:08:34.483Z,0.8
2023-01-10T05:09:34.186Z,0.0
2023-01-10T05:10:34.019Z,1.2
2023-01-10T05:11:34.639Z,0.1
2023-01-10T05:12:34.417Z,0.0
2023-01-10T05:13:34.271Z,0.0
2023-01-10T05:14:34.049Z,0.2
2023-01-10T05:15:33.972Z,0.2
2023-01-10T05:16:34.661Z,0.0
2023-01-10T05:17:34.429Z,0.3
2023-01-10T05:18:34.272Z,0.3
2023-01-10T05:19:34.071Z,0.0
2023-01-10T05:20:34.802Z,0.2
2023-01-10T05:21:34.547Z,0.0
2023-01-10T05:22:34.329Z,0.0
2023-01-10T05:23:34.183Z,0.5
2023-01-10T05:24:33.953Z,0.2
2023-01-10T05:25:34.692Z,0.2
2023-01-10T05:26:34.548Z,0.0
2023-01-10T05:27:34.357Z,0.2
2023-01-10T05:28:34.318Z,0.6
2023-01-10T05:29:33.950Z,0.0
2023-01-10T05:30:34.636Z,0.0
2023-01-10T05:31:34.552Z,0.0
2023-01-10T05:32:34.199Z,0.2
2023-01-10T05:33:34.014Z,0.0
2023-01-10T05:34:34.960Z,0.0
2023-01-10T05:35:34.718Z,0.0
2023-01-10T05:36:34.424Z,0.2
2023-01-10T05:37:34.212Z,0.1
2023-01-10T05:38:34.004Z,0.0
2023-01-10T05:39:34.701Z,0.8
2023-01-10T05:40:34.444Z,1.4
2023-01-10T05:41:34.252Z,0.1
2023-01-10T05:42:34.160Z,0.2
2023-01-10T05:43:33.989Z,0.0
2023-01-10T05:44:34.643Z,0.1
2023-01-10T05:45:34.515Z,0.2
2023-01-10T05:46:34.325Z,0.0
2023-01-10T05:47:34.103Z,0.0
2023-01-10T05:48:34.883Z,0.1
2023-01-10T05:49:34.547Z,0.2
2023-01-10T05:50:34.299Z,0.4
2023-01-10T05:51:34.229Z,0.0
2023-01-10T05:52:33.965Z,0.8
2023-01-10T05:53:34.748Z,0.0
2023-01-10T05:54:34.571Z,0.5
2023-01-10T05:55:34.337Z,0.4
2023-01-10T05:56:34.087Z,0.5
2023-01-10T05:57:33.924Z,0.0
2023-01-10T05:58:34.667Z,0.6
2023-01-10T05:59:34.464Z,0.0
2023-01-10T06:00:34.208Z,0.0
2023-01-10T06:01:34.075Z,0.5
2023-01-10T06:02:34.843Z,0.4
2023-01-10T06:03:34.732Z,0.0
2023-01-10T06:04:34.424Z,0.3
2023-01-10T06:05:34.243Z,0.0
2023-01-10T06:06:34.046Z,0.6
2023-01-10T06:07:34.723Z,0.0
2023-01-10T06:08:34.835Z,0.0
2023-01-10T06:09:34.305Z,0.1
2023-01-10T06:10:34.065Z,0.0
2023-01-10T06:11:33.900Z,0.1
2023-01-10T06:12:34.620Z,0.8
2023-01-10T06:13:34.513Z,0.8
2023-01-10T06:14:34.308Z,0.1
2023-01-10T06:15:34.906Z,0.0
2023-01-10T06:16:33.916Z,0.5
2023-01-10T06:17:34.780Z,0.0
2023-01-10T06:18:34.337Z,0.1
2023-01-10T06:19:34.238Z,0.4
2023-01-10T06:20:34.136Z,0.4
2023-01-10T06:21:34.717Z,0.6
2023-01-10T06:22:34.541Z,0.0
2023-01-10T06:23:34.391Z,0.0
2023-01-10T06:24:34.199Z,0.1
2023-01-10T06:25:34.935Z,0.0
2023-01-10T06:26:34.620Z,0.0
2023-01-10T06:27:34.463Z,0.0
2023-01-10T06:28:34.249Z,0.2
2023-01-10T06:29:34.054Z,0.4
2023-01-10T06:30:33.937Z,0.0
2023-01-10T06:31:34.785Z,0.0
2023-01-10T06:32:34.885Z,0.1
2023-01-10T06:33:34.397Z,0.0
2023-01-10T06:34:34.132Z,0.0
2023-01-10T06:35:34.817Z,0.0
2023-01-10T06:36:34.522Z,0.0
2023-01-10T06:37:34.348Z,0.0
2023-01-10T06:38:34.171Z,0.1
2023-01-10T06:39:33.938Z,0.3
2023-01-10T06:40:34.759Z,0.0
2023-01-10T06:41:34.506Z,0.3
2023-01-10T06:42:34.279Z,0.6
2023-01-10T06:43:34.059Z,0.0
2023-01-10T06:44:33.911Z,0.0
2023-01-10T06:45:34.746Z,0.2
2023-01-10T06:46:34.430Z,0.0
2023-01-10T06:47:34.405Z,0.0
2023-01-10T06:48:34.113Z,0.0
2023-01-10T06:49:34.783Z,0.3
2023-01-10T06:50:34.647Z,0.0
2023-01-10T06:51:34.445Z,0.2
2023-01-10T06:52:34.234Z,0.0
2023-01-10T06:53:34.217Z,0.3
2023-01-10T06:54:34.699Z,0.2
2023-01-10T06:55:34.520Z,0.0
2023-01-10T06:56:34.305Z,0.4
2023-01-10T06:57:34.137Z,0.2
2023-01-10T06:58:34.112Z,0.3
2023-01-10T06:59:34.683Z,0.0
2023-01-10T07:00:34.691Z,0.2
2023-01-10T07:01:34.509Z,0.6
2023-01-10T07:02:34.283Z,0.0
2023-01-10T07:03:33.967Z,0.0
2023-01-10T07:04:34.555Z,0.0
2023-01-10T07:05:34.369Z,0.0
2023-01-10T07:06:37.457Z,0.1
2023-01-10T07:07:33.997Z,0.1
2023-01-10T07:08:39.644Z,0.3
2023-01-10T07:09:34.568Z,0.0
2023-01-10T07:10:34.460Z,0.1
2023-01-10T07:11:34.652Z,0.3
2023-01-10T07:12:34.044Z,0.3
2023-01-10T07:13:35.040Z,0.0
2023-01-10T07:14:34.510Z,0.0
2023-01-10T07:15:34.552Z,0.0
2023-01-10T07:16:34.066Z,0.0
2023-01-10T07:17:33.939Z,0.1
2023-01-10T07:18:35.211Z,0.0
2023-01-10T07:19:34.432Z,0.3
2023-01-10T07:20:34.491Z,0.2
2023-01-10T07:21:34.084Z,0.1
2023-01-10T07:22:33.937Z,0.2
2023-01-10T07:23:35.548Z,0.0
2023-01-10T07:24:34.360Z,0.9
2023-01-10T07:25:34.125Z,0.0
2023-01-10T07:26:34.065Z,0.1
2023-01-10T07:27:34.893Z,0.0
2023-01-10T07:28:34.734Z,0.0
2023-01-10T07:29:34.376Z,0.0
2023-01-10T07:30:34.161Z,0.3
2023-01-10T07:31:34.056Z,0.0
2023-01-10T07:32:34.684Z,0.7
2023-01-10T07:33:34.417Z,0.1
2023-01-10T07:34:34.266Z,0.5
2023-01-10T07:35:34.055Z,0.1
2023-01-10T07:36:34.875Z,0.3
2023-01-10T07:37:34.640Z,0.1
2023-01-10T07:38:34.411Z,0.0
2023-01-10T07:39:34.281Z,0.0
2023-01-10T07:40:34.361Z,1.0
2023-01-10T07:41:34.743Z,0.0
2023-01-10T07:42:34.531Z,0.0
2023-01-10T07:43:34.568Z,0.0
2023-01-10T07:44:34.155Z,0.1
2023-01-10T07:45:33.963Z,0.4
2023-01-10T07:46:34.811Z,0.0
2023-01-10T07:47:34.673Z,0.0
2023-01-10T07:48:35.061Z,0.1
2023-01-10T07:49:34.141Z,0.3
2023-01-10T07:50:34.632Z,0.0
2023-01-10T07:51:34.537Z,0.1
2023-01-10T07:52:34.413Z,0.0
2023-01-10T07:53:34.262Z,0.0
2023-01-10T07:54:34.678Z,0.0
2023-01-10T07:55:35.237Z,1.4
2023-01-10T07:56:34.563Z,0.8
2023-01-10T07:57:34.392Z,0.3
2023-01-10T07:58:34.515Z,0.0
2023-01-10T07:59:34.023Z,0.7
2023-01-10T08:00:34.707Z,1.1
2023-01-10T08:01:34.531Z,0.4
2023-01-10T08:02:34.356Z,0.2
2023-01-10T08:03:34.298Z,0.5
2023-01-10T08:04:33.951Z,0.7
2023-01-10T08:05:34.672Z,0.5
2023-01-10T08:06:34.521Z,0.2
2023-01-10T08:07:34.361Z,0.1
2023-01-10T08:08:34.090Z,0.4
2023-01-10T08:09:33.917Z,0.3
2023-01-10T08:10:35.392Z,0.7
2023-01-10T08:11:34.377Z,0.6
2023-01-10T08:12:34.237Z,1.9
2023-01-10T08:13:34.246Z,2.0
2023-01-10T08:14:34.904Z,1.1
2023-01-10T08:15:34.572Z,0.9
2023-01-10T08:16:34.362Z,0.9
2023-01-10T08:17:34.625Z,1.9
2023-01-10T08:18:34.339Z,1.2
2023-01-10T08:19:34.821Z,1.5
2023-01-10T08:20:34.452Z,1.9
2023-01-10T08:21:34.325Z,1.0
2023-01-10T08:22:34.136Z,1.0
2023-01-10T08:23:33.995Z,0.7
2023-01-10T08:24:34.750Z,0.8
2023-01-10T08:25:34.563Z,0.5
2023-01-10T08:26:34.432Z,1.0
2023-01-10T08:27:34.279Z,1.0
2023-01-10T08:28:34.013Z,1.3
2023-01-10T08:29:34.780Z,1.3
2023-01-10T08:30:34.493Z,2.2
2023-01-10T08:31:34.400Z,1.2
2023-01-10T08:32:34.107Z,1.0
2023-01-10T08:33:33.991Z,2.3
2023-01-10T08:34:34.652Z,0.5
2023-01-10T08:35:38.149Z,0.7
2023-01-10T08:36:34.284Z,0.6
2023-01-10T08:37:34.088Z,0.4
2023-01-10T08:38:33.916Z,0.9
2023-01-10T08:39:34.743Z,2.0
2023-01-10T08:40:34.426Z,1.5
2023-01-10T08:41:34.260Z,0.9
2023-01-10T08:42:34.054Z,1.0
2023-01-10T08:43:34.751Z,2.4
2023-01-10T08:44:34.833Z,1.9
2023-01-10T08:45:34.727Z,1.7
2023-01-10T08:46:34.280Z,0.9
2023-01-10T08:47:35.029Z,1.1
2023-01-10T08:48:34.763Z,1.2
2023-01-10T08:49:34.547Z,0.7
2023-01-10T08:50:34.463Z,1.5
2023-01-10T08:51:34.370Z,1.1
2023-01-10T08:52:33.973Z,0.3
2023-01-10T08:53:34.715Z,0.7
2023-01-10T08:54:34.539Z,1.1
2023-01-10T08:55:34.397Z,0.8
2023-01-10T08:56:34.200Z,1.2
2023-01-10T08:57:34.033Z,1.2
2023-01-10T08:58:34.783Z,0.9
2023-01-10T08:59:34.504Z,1.2
2023-01-10T09:00:34.411Z,1.0
2023-01-10T09:01:34.419Z,1.2
2023-01-10T09:02:34.026Z,0.4
2023-01-10T09:03:34.709Z,1.0
2023-01-10T09:04:34.493Z,0.8
2023-01-10T09:05:34.285Z,1.3
2023-01-10T09:06:34.100Z,0.5
2023-01-10T09:07:34.808Z,0.6
2023-01-10T09:08:34.785Z,1.1
2023-01-10T09:09:35.405Z,1.7
2023-01-10T09:10:34.744Z,1.2
2023-01-10T09:11:34.049Z,0.9
2023-01-10T09:12:34.894Z,1.4
2023-01-10T09:13:34.855Z,0.8
2023-01-10T09:14:34.367Z,1.0
2023-01-10T09:15:35.946Z,1.1
2023-01-10T09:16:34.052Z,2.4
2023-01-10T09:17:34.772Z,0.7
2023-01-10T09:18:34.561Z,0.8
2023-01-10T09:19:34.399Z,1.0
2023-01-10T09:20:34.942Z,0.9
2023-01-10T09:21:34.011Z,0.9
2023-01-10T09:22:35.852Z,1.9
2023-01-10T09:23:36.167Z,1.3
2023-01-10T09:24:34.388Z,0.8
2023-01-10T09:25:34.236Z,1.1
2023-01-10T09:26:34.060Z,0.1
2023-01-10T09:27:34.672Z,1.3
2023-01-10T09:28:34.621Z,1.1
2023-01-10T09:29:34.308Z,1.7
2023-01-10T09:30:34.142Z,1.2
2023-01-10T09:31:34.059Z,1.1
2023-01-10T09:32:34.832Z,1.5
2023-01-10T09:33:45.859Z,0.5
2023-01-10T09:34:34.412Z,0.9
2023-01-10T09:35:35.351Z,1.0
2023-01-10T09:36:34.007Z,1.5
2023-01-10T09:37:34.693Z,0.6
2023-01-10T09:38:34.586Z,0.7
2023-01-10T09:39:34.287Z,1.0
2023-01-10T09:40:47.638Z,2.3
2023-01-10T09:41:38.801Z,2.6
2023-01-10T09:42:52.553Z,1.1
2023-01-10T09:43:57.931Z,1.1
2023-01-10T09:44:42.133Z,0.6
2023-01-10T09:45:41.637Z,1.3
2023-01-10T09:46:52.139Z,1.0
2023-01-10T09:47:52.581Z,0.6
2023-01-10T09:48:42.150Z,0.5
2023-01-10T09:49:53.090Z,1.1
2023-01-10T09:50:41.495Z,1.5
2023-01-10T09:51:39.729Z,1.5
2023-01-10T09:52:38.896Z,0.8
2023-01-10T09:53:36.437Z,1.4
2023-01-10T09:54:37.425Z,1.2
2023-01-10T09:55:35.976Z,1.8
2023-01-10T09:56:34.629Z,0.8
2023-01-10T09:57:34.594Z,0.6
2023-01-10T09:58:35.778Z,1.2
2023-01-10T09:59:38.857Z,1.3
2023-01-10T10:00:51.751Z,1.1
2023-01-10T10:01:34.923Z,0.9
2023-01-10T10:02:41.937Z,0.7
2023-01-10T10:03:41.182Z,0.9
2023-01-10T10:04:35.741Z,2.2
2023-01-10T10:05:35.260Z,1.3
2023-01-10T10:06:33.879Z,0.8
2023-01-10T10:07:34.671Z,1.4
2023-01-10T10:08:35.108Z,0.7
2023-01-10T10:09:34.314Z,0.8
2023-01-10T10:10:38.590Z,1.9
2023-01-10T10:11:39.665Z,1.4
2023-01-10T10:12:48.143Z,1.0
2023-01-10T10:13:52.580Z,0.5
2023-01-10T10:14:42.168Z,0.5
2023-01-10T10:15:38.988Z,0.7
2023-01-10T10:16:41.665Z,1.2
2023-01-10T10:17:57.122Z,1.4
2023-01-10T10:18:39.244Z,1.9
2023-01-10T10:19:41.642Z,2.0
2023-01-10T10:20:38.900Z,1.1
2023-01-10T10:21:42.651Z,0.7
2023-01-10T10:22:52.582Z,1.1
2023-01-10T10:23:57.231Z,0.6
2023-01-10T10:24:52.115Z,0.8
2023-01-10T10:25:47.721Z,0.9
2023-01-10T10:26:39.637Z,0.9
2023-01-10T10:27:38.952Z,0.8
2023-01-10T10:28:46.639Z,0.8
2023-01-10T10:29:39.008Z,0.5
2023-01-10T10:30:41.633Z,0.4
2023-01-10T10:31:45.752Z,0.6
2023-01-10T10:32:52.596Z,1.2
2023-01-10T10:33:39.267Z,1.4
2023-01-10T10:34:43.085Z,1.3
2023-01-10T10:35:47.256Z,0.6
2023-01-10T10:36:42.206Z,0.7
2023-01-10T10:37:40.205Z,0.5
2023-01-10T10:38:36.520Z,0.4
2023-01-10T10:39:39.054Z,0.6
2023-01-10T10:40:37.025Z,0.8
2023-01-10T10:41:36.424Z,1.1
2023-01-10T10:42:38.674Z,0.7
2023-01-10T10:43:36.737Z,0.9
2023-01-10T10:44:42.530Z,0.1
2023-01-10T10:45:54.423Z,1.7
2023-01-10T10:46:34.658Z,0.6
2023-01-10T10:47:35.571Z,1.4
2023-01-10T10:48:44.655Z,1.0
2023-01-10T10:49:41.156Z,1.4
2023-01-10T10:50:34.115Z,0.9
2023-01-10T10:51:39.877Z,0.7
2023-01-10T10:52:35.205Z,1.1
2023-01-10T10:53:34.725Z,1.4
2023-01-10T10:54:34.860Z,1.8
2023-01-10T10:55:35.709Z,1.1
2023-01-10T10:56:34.644Z,0.6
2023-01-10T10:57:36.531Z,1.0
2023-01-10T10:58:34.621Z,0.2
2023-01-10T10:59:34.040Z,0.6
2023-01-10T11:00:34.904Z,0.5
2023-01-10T11:01:34.815Z,1.2
2023-01-10T11:02:48.977Z,1.3
2023-01-10T11:03:39.049Z,1.2
2023-01-10T11:04:34.377Z,0.2
2023-01-10T11:05:41.696Z,0.9
2023-01-10T11:06:35.099Z,1.8
2023-01-10T11:07:35.920Z,0.8
2023-01-10T11:08:35.565Z,0.6
2023-01-10T11:09:34.778Z,0.1
2023-01-10T11:10:34.863Z,0.7
2023-01-10T11:11:39.991Z,0.6
2023-01-10T11:12:36.361Z,1.1
2023-01-10T11:13:39.102Z,0.9
2023-01-10T11:14:44.687Z,0.5
2023-01-10T11:15:39.231Z,1.4
2023-01-10T11:16:38.700Z,0.7
2023-01-10T11:17:34.244Z,1.4
2023-01-10T11:18:34.089Z,1.0
2023-01-10T11:19:34.808Z,0.5
2023-01-10T11:20:35.603Z,0.6
2023-01-10T11:21:34.615Z,1.2
2023-01-10T11:22:44.696Z,1.2
2023-01-10T11:23:41.724Z,1.1
2023-01-10T11:24:35.210Z,0.8
2023-01-10T11:25:34.585Z,0.9
2023-01-10T11:26:37.520Z,0.4
2023-01-10T11:27:39.072Z,0.8
2023-01-10T11:28:34.249Z,1.2
2023-01-10T11:29:39.421Z,0.9
2023-01-10T11:30:34.764Z,1.2
2023-01-10T11:31:35.985Z,0.2
2023-01-10T11:32:38.139Z,1.1
2023-01-10T11:33:34.553Z,0.8
2023-01-10T11:34:35.478Z,1.4
2023-01-10T11:35:36.333Z,0.4
2023-01-10T11:36:52.640Z,1.0
2023-01-10T11:37:35.068Z,1.1
2023-01-10T11:38:34.564Z,1.4
2023-01-10T11:39:34.698Z,1.7
2023-01-10T11:40:35.195Z,1.0
2023-01-10T11:41:34.361Z,0.4
2023-01-10T11:42:34.093Z,1.2
2023-01-10T11:43:35.694Z,0.7
2023-01-10T11:44:34.609Z,0.5
2023-01-10T11:45:34.593Z,0.2
2023-01-10T11:46:34.256Z,0.6
2023-01-10T11:47:38.089Z,0.6
2023-01-10T11:49:04.857Z,0.4
2023-01-10T11:49:39.316Z,0.7
2023-01-10T11:50:39.075Z,0.9
2023-01-10T11:51:38.584Z,1.2
2023-01-10T11:52:34.169Z,1.1
2023-01-10T11:53:39.499Z,0.3
2023-01-10T11:54:34.674Z,0.4
2023-01-10T11:55:36.588Z,1.2
2023-01-10T11:56:35.291Z,0.8
2023-01-10T11:57:34.007Z,1.7
2023-01-10T11:58:35.600Z,1.2
2023-01-10T11:59:34.646Z,0.8
2023-01-10T12:00:39.685Z,1.1
2023-01-10T12:01:38.962Z,0.9
2023-01-10T12:02:35.407Z,0.8
2023-01-10T12:03:36.000Z,0.4
2023-01-10T12:04:38.954Z,1.0
2023-01-10T12:05:34.652Z,0.6
2023-01-10T12:06:34.302Z,0.3
2023-01-10T12:07:52.075Z,1.5
2023-01-10T12:08:36.117Z,1.5
2023-01-10T12:09:39.372Z,0.4
2023-01-10T12:10:34.763Z,1.0
2023-01-10T12:11:34.299Z,0.6
2023-01-10T12:12:34.764Z,0.4
2023-01-10T12:13:47.664Z,0.6
2023-01-10T12:14:34.467Z,0.4
2023-01-10T12:15:34.501Z,0.2
2023-01-10T12:16:34.422Z,0.4
2023-01-10T12:17:35.093Z,0.2
2023-01-10T12:18:34.729Z,0.3
2023-01-10T12:19:34.487Z,0.0
2023-01-10T12:20:39.155Z,0.7
2023-01-10T12:21:40.714Z,1.4
2023-01-10T12:22:38.831Z,0.7
2023-01-10T12:23:35.142Z,0.7
2023-01-10T12:24:35.109Z,1.0
2023-01-10T12:25:39.101Z,0.4
2023-01-10T12:26:34.393Z,0.6
2023-01-10T12:27:34.809Z,0.8
2023-01-10T12:28:35.416Z,0.8
2023-01-10T12:29:36.150Z,0.6
2023-01-10T12:30:35.502Z,0.4
2023-01-10T12:31:34.656Z,1.3
2023-01-10T12:32:40.884Z,0.2
2023-01-10T12:33:39.507Z,0.0
2023-01-10T12:34:44.734Z,0.4
2023-01-10T12:35:42.925Z,0.4
2023-01-10T12:36:41.580Z,0.1
2023-01-10T12:37:38.852Z,0.2
2023-01-10T12:38:45.147Z,0.1
2023-01-10T12:39:45.197Z,0.4
2023-01-10T12:40:40.324Z,0.1
2023-01-10T12:41:38.843Z,0.4
2023-01-10T12:42:39.484Z,0.4
2023-01-10T12:43:39.540Z,0.3
2023-01-10T12:44:36.299Z,1.1
2023-01-10T12:45:42.971Z,0.9
2023-01-10T12:47:05.118Z,0.2
2023-01-10T12:47:39.553Z,0.4
2023-01-10T12:48:39.400Z,0.2
2023-01-10T12:49:41.702Z,0.6
2023-01-10T12:50:35.927Z,0.1
2023-01-10T12:51:34.523Z,1.2
2023-01-10T12:52:42.590Z,0.5
2023-01-10T12:53:37.480Z,0.7
2023-01-10T12:54:34.339Z,0.9
2023-01-10T12:55:41.208Z,0.1
2023-01-10T12:56:34.809Z,0.0
2023-01-10T12:57:38.243Z,0.3
2023-01-10T12:58:45.240Z,0.5
2023-01-10T12:59:37.790Z,0.9
2023-01-10T13:00:48.311Z,0.3
2023-01-10T13:01:36.029Z,0.5
2023-01-10T13:02:38.914Z,0.4
2023-01-10T13:03:34.594Z,1.0
2023-01-10T13:04:36.162Z,0.1
2023-01-10T13:05:33.888Z,0.1
2023-01-10T13:06:36.459Z,0.3
2023-01-10T13:07:34.888Z,0.3
2023-01-10T13:08:34.762Z,0.3
2023-01-10T13:09:34.200Z,0.1
2023-01-10T13:10:34.666Z,0.1
2023-01-10T13:11:39.492Z,0.8
2023-01-10T13:12:40.740Z,0.2
2023-01-10T13:13:39.103Z,0.6
2023-01-10T13:14:38.934Z,1.2
2023-01-10T13:15:37.961Z,0.7
2023-01-10T13:16:39.436Z,0.5
2023-01-10T13:17:41.196Z,0.5
2023-01-10T13:18:34.182Z,0.2
2023-01-10T13:19:34.047Z,0.0
2023-01-10T13:20:36.189Z,0.2
2023-01-10T13:21:35.582Z,1.0
2023-01-10T13:22:35.217Z,0.5
2023-01-10T13:23:39.101Z,0.3
2023-01-10T13:24:33.925Z,0.6
2023-01-10T13:25:35.412Z,0.3
2023-01-10T13:26:48.193Z,0.2
2023-01-10T13:27:34.590Z,0.6
2023-01-10T13:28:35.949Z,0.4
2023-01-10T13:29:39.895Z,0.9
2023-01-10T13:30:38.217Z,0.6
2023-01-10T13:31:34.524Z,1.0
2023-01-10T13:32:35.198Z,0.1
2023-01-10T13:33:41.707Z,0.0
2023-01-10T13:34:34.912Z,0.4
2023-01-10T13:35:38.709Z,0.0
2023-01-10T13:36:39.025Z,0.8
2023-01-10T13:37:36.195Z,0.0
2023-01-10T13:38:38.852Z,1.0
2023-01-10T13:39:36.807Z,0.2
2023-01-10T13:40:34.487Z,0.0
2023-01-10T13:41:52.649Z,0.0
2023-01-10T13:42:34.788Z,0.0
2023-01-10T13:43:38.349Z,0.1
2023-01-10T13:44:42.155Z,0.1
2023-01-10T13:45:34.390Z,0.3
2023-01-10T13:46:37.926Z,0.4